Monument Lake Park, Colorado
Current Conditions -  °F | °C
As of 6:45 AM on Thursday 30 Oct 2014 (Local Time) from KVTP Reporting Station
Clear Clear  
Wind Chill: -4°   Ceiling: Unl
Heat Index:   Visibility: 10mi
Dew Point: -11°   Wind: 13mph
Humidity: 41%   Direction: 30°NNE
Pressure: 30.48"   Gusts: NA
Location:  37.1566°N, 104.956°W
Report Text: KVTP 301245Z AUTO 03011KT 10SM CLR 01/M11 A3048 RMK AO2
Loading
Personal Weather Stations






























Interactive Weather Map
Tropical Storm Tracking
New forecast layout! Learn more

10-Day Weather Forecast

Advertisements
Track Severe Weather on mobile